sensor_id;sensor_type;location;lat;lon;timestamp;temperature;humidity
79014;DHT22;68419;44.714;37.756;2023-04-03T00:00:05;25.78;36.50
79014;DHT22;68419;44.714;37.756;2023-04-03T00:01:07;25.79;36.49
79014;DHT22;68419;44.714;37.756;2023-04-03T00:02:09;25.77;36.53
79014;DHT22;68419;44.714;37.756;2023-04-03T00:03:14;25.77;36.53
79014;DHT22;68419;44.714;37.756;2023-04-03T00:04:15;25.76;36.54
79014;DHT22;68419;44.714;37.756;2023-04-03T00:05:17;25.75;36.56
79014;DHT22;68419;44.714;37.756;2023-04-03T00:06:19;25.75;36.56
79014;DHT22;68419;44.714;37.756;2023-04-03T00:07:20;25.75;36.58
79014;DHT22;68419;44.714;37.756;2023-04-03T00:08:22;25.74;36.57
79014;DHT22;68419;44.714;37.756;2023-04-03T00:09:24;25.76;36.55
79014;DHT22;68419;44.714;37.756;2023-04-03T00:10:25;25.75;36.59
79014;DHT22;68419;44.714;37.756;2023-04-03T00:11:27;25.73;36.59
79014;DHT22;68419;44.714;37.756;2023-04-03T00:12:28;25.74;36.58
79014;DHT22;68419;44.714;37.756;2023-04-03T00:13:31;25.73;36.60
79014;DHT22;68419;44.714;37.756;2023-04-03T00:14:33;25.75;36.59
79014;DHT22;68419;44.714;37.756;2023-04-03T00:15:35;25.74;36.56
79014;DHT22;68419;44.714;37.756;2023-04-03T00:16:36;25.74;36.59
79014;DHT22;68419;44.714;37.756;2023-04-03T00:17:38;25.75;36.59
79014;DHT22;68419;44.714;37.756;2023-04-03T00:18:40;25.74;36.58
79014;DHT22;68419;44.714;37.756;2023-04-03T00:19:41;25.75;36.56
79014;DHT22;68419;44.714;37.756;2023-04-03T00:20:43;25.74;36.55
79014;DHT22;68419;44.714;37.756;2023-04-03T00:21:44;25.76;36.54
79014;DHT22;68419;44.714;37.756;2023-04-03T00:22:46;25.76;36.50
79014;DHT22;68419;44.714;37.756;2023-04-03T00:23:48;25.77;36.48
79014;DHT22;68419;44.714;37.756;2023-04-03T00:24:49;25.77;36.49
79014;DHT22;68419;44.714;37.756;2023-04-03T00:25:52;25.78;36.47
79014;DHT22;68419;44.714;37.756;2023-04-03T00:26:54;25.77;36.47
79014;DHT22;68419;44.714;37.756;2023-04-03T00:27:56;25.77;36.47
79014;DHT22;68419;44.714;37.756;2023-04-03T00:28:57;25.79;36.44
79014;DHT22;68419;44.714;37.756;2023-04-03T00:29:59;25.78;36.44
79014;DHT22;68419;44.714;37.756;2023-04-03T00:31:00;25.78;36.49
79014;DHT22;68419;44.714;37.756;2023-04-03T00:32:02;25.75;36.52
79014;DHT22;68419;44.714;37.756;2023-04-03T00:33:04;25.76;36.47
79014;DHT22;68419;44.714;37.756;2023-04-03T00:34:05;25.77;36.47
79014;DHT22;68419;44.714;37.756;2023-04-03T00:35:07;25.78;36.45
79014;DHT22;68419;44.714;37.756;2023-04-03T00:36:11;25.79;36.43
79014;DHT22;68419;44.714;37.756;2023-04-03T00:37:13;25.78;36.43
79014;DHT22;68419;44.714;37.756;2023-04-03T00:38:15;25.78;36.45
79014;DHT22;68419;44.714;37.756;2023-04-03T00:39:16;25.79;36.47
79014;DHT22;68419;44.714;37.756;2023-04-03T00:40:18;25.77;36.48
79014;DHT22;68419;44.714;37.756;2023-04-03T00:41:20;25.76;36.49
79014;DHT22;68419;44.714;37.756;2023-04-03T00:42:23;25.79;36.43
79014;DHT22;68419;44.714;37.756;2023-04-03T00:43:25;25.77;36.46
79014;DHT22;68419;44.714;37.756;2023-04-03T00:46:36;25.78;36.41
79014;DHT22;68419;44.714;37.756;2023-04-03T00:47:39;25.78;36.43
79014;DHT22;68419;44.714;37.756;2023-04-03T00:48:46;25.78;36.43
79014;DHT22;68419;44.714;37.756;2023-04-03T00:49:49;25.78;36.42
79014;DHT22;68419;44.714;37.756;2023-04-03T00:50:52;25.78;36.39
79014;DHT22;68419;44.714;37.756;2023-04-03T00:51:54;25.79;36.37
79014;DHT22;68419;44.714;37.756;2023-04-03T00:52:57;25.80;36.40
79014;DHT22;68419;44.714;37.756;2023-04-03T00:54:02;25.79;36.39
79014;DHT22;68419;44.714;37.756;2023-04-03T00:55:07;25.78;36.41
79014;DHT22;68419;44.714;37.756;2023-04-03T00:56:13;25.79;36.37
79014;DHT22;68419;44.714;37.756;2023-04-03T00:57:16;25.80;36.35
79014;DHT22;68419;44.714;37.756;2023-04-03T00:58:20;25.79;36.37
79014;DHT22;68419;44.714;37.756;2023-04-03T00:59:30;25.82;36.34
79014;DHT22;68419;44.714;37.756;2023-04-03T01:00:34;25.81;36.35
79014;DHT22;68419;44.714;37.756;2023-04-03T01:01:37;25.79;36.41
79014;DHT22;68419;44.714;37.756;2023-04-03T01:02:39;25.79;36.40
79014;DHT22;68419;44.714;37.756;2023-04-03T01:03:43;25.79;36.42
79014;DHT22;68419;44.714;37.756;2023-04-03T01:04:45;25.80;36.39
79014;DHT22;68419;44.714;37.756;2023-04-03T01:05:48;25.77;36.42
79014;DHT22;68419;44.714;37.756;2023-04-03T01:06:50;25.77;36.43
79014;DHT22;68419;44.714;37.756;2023-04-03T01:07:52;25.80;36.35
79014;DHT22;68419;44.714;37.756;2023-04-03T01:08:55;25.81;36.34
79014;DHT22;68419;44.714;37.756;2023-04-03T01:10:04;25.81;36.30
79014;DHT22;68419;44.714;37.756;2023-04-03T01:11:06;25.82;36.31
79014;DHT22;68419;44.714;37.756;2023-04-03T01:13:31;25.82;36.31
79014;DHT22;68419;44.714;37.756;2023-04-03T01:14:33;25.81;36.34
79014;DHT22;68419;44.714;37.756;2023-04-03T01:15:35;25.80;36.33
79014;DHT22;68419;44.714;37.756;2023-04-03T01:16:36;25.81;36.34
79014;DHT22;68419;44.714;37.756;2023-04-03T01:18:45;25.78;36.40
79014;DHT22;68419;44.714;37.756;2023-04-03T01:19:53;25.79;36.37
79014;DHT22;68419;44.714;37.756;2023-04-03T01:22:39;25.79;36.37
79014;DHT22;68419;44.714;37.756;2023-04-03T01:24:55;25.76;36.43
79014;DHT22;68419;44.714;37.756;2023-04-03T01:25:57;25.76;36.41
79014;DHT22;68419;44.714;37.756;2023-04-03T01:27:01;25.74;36.47
79014;DHT22;68419;44.714;37.756;2023-04-03T01:28:05;25.73;36.50
79014;DHT22;68419;44.714;37.756;2023-04-03T01:29:06;25.74;36.45
79014;DHT22;68419;44.714;37.756;2023-04-03T01:30:09;25.75;36.46
79014;DHT22;68419;44.714;37.756;2023-04-03T01:32:29;25.75;36.56
79014;DHT22;68419;44.714;37.756;2023-04-03T01:33:31;25.79;36.57
79014;DHT22;68419;44.714;37.756;2023-04-03T01:34:33;25.82;36.59
79014;DHT22;68419;44.714;37.756;2023-04-03T01:35:35;25.83;36.59
79014;DHT22;68419;44.714;37.756;2023-04-03T01:36:37;25.86;36.50
79014;DHT22;68419;44.714;37.756;2023-04-03T01:37:38;25.91;36.36
79014;DHT22;68419;44.714;37.756;2023-04-03T01:38:40;25.94;36.26
79014;DHT22;68419;44.714;37.756;2023-04-03T01:39:42;25.97;36.22
79014;DHT22;68419;44.714;37.756;2023-04-03T01:40:44;25.97;36.12
79014;DHT22;68419;44.714;37.756;2023-04-03T01:41:46;25.98;36.19
79014;DHT22;68419;44.714;37.756;2023-04-03T01:42:55;25.99;36.09
79014;DHT22;68419;44.714;37.756;2023-04-03T01:43:56;26.03;36.00
79014;DHT22;68419;44.714;37.756;2023-04-03T01:44:58;26.04;35.98
79014;DHT22;68419;44.714;37.756;2023-04-03T01:46:00;26.05;36.03
79014;DHT22;68419;44.714;37.756;2023-04-03T01:47:01;26.07;35.95
79014;DHT22;68419;44.714;37.756;2023-04-03T01:48:04;26.07;35.90
79014;DHT22;68419;44.714;37.756;2023-04-03T01:49:06;26.09;35.80
79014;DHT22;68419;44.714;37.756;2023-04-03T01:50:08;26.11;35.79
79014;DHT22;68419;44.714;37.756;2023-04-03T01:51:09;26.10;35.82
79014;DHT22;68419;44.714;37.756;2023-04-03T01:52:11;26.10;35.92
79014;DHT22;68419;44.714;37.756;2023-04-03T01:53:13;26.09;35.82
79014;DHT22;68419;44.714;37.756;2023-04-03T01:54:15;26.08;35.91
79014;DHT22;68419;44.714;37.756;2023-04-03T01:55:16;26.06;35.92
79014;DHT22;68419;44.714;37.756;2023-04-03T01:56:18;26.07;35.87
79014;DHT22;68419;44.714;37.756;2023-04-03T01:57:20;26.07;35.86
79014;DHT22;68419;44.714;37.756;2023-04-03T01:58:21;26.08;35.83
79014;DHT22;68419;44.714;37.756;2023-04-03T01:59:24;26.09;35.73
79014;DHT22;68419;44.714;37.756;2023-04-03T02:00:27;26.07;35.83
79014;DHT22;68419;44.714;37.756;2023-04-03T02:01:28;26.08;35.73
79014;DHT22;68419;44.714;37.756;2023-04-03T02:02:30;26.08;35.73
79014;DHT22;68419;44.714;37.756;2023-04-03T02:03:32;26.10;35.67
79014;DHT22;68419;44.714;37.756;2023-04-03T02:04:34;26.10;35.61
79014;DHT22;68419;44.714;37.756;2023-04-03T02:05:35;26.09;35.68
79014;DHT22;68419;44.714;37.756;2023-04-03T02:06:37;26.10;35.66
79014;DHT22;68419;44.714;37.756;2023-04-03T02:07:39;26.09;35.69
79014;DHT22;68419;44.714;37.756;2023-04-03T02:08:40;26.09;35.66
79014;DHT22;68419;44.714;37.756;2023-04-03T02:09:42;26.08;35.60
79014;DHT22;68419;44.714;37.756;2023-04-03T02:10:47;26.09;35.63
79014;DHT22;68419;44.714;37.756;2023-04-03T02:11:49;26.09;35.67
79014;DHT22;68419;44.714;37.756;2023-04-03T02:12:51;26.08;35.59
79014;DHT22;68419;44.714;37.756;2023-04-03T02:13:52;26.09;35.60
79014;DHT22;68419;44.714;37.756;2023-04-03T02:14:54;26.10;35.58
79014;DHT22;68419;44.714;37.756;2023-04-03T02:15:56;26.10;35.56
79014;DHT22;68419;44.714;37.756;2023-04-03T02:16:57;26.09;35.61
79014;DHT22;68419;44.714;37.756;2023-04-03T02:17:59;26.08;35.63
79014;DHT22;68419;44.714;37.756;2023-04-03T02:19:01;26.09;35.63
79014;DHT22;68419;44.714;37.756;2023-04-03T02:20:05;26.09;35.68
79014;DHT22;68419;44.714;37.756;2023-04-03T02:21:08;26.08;35.54
79014;DHT22;68419;44.714;37.756;2023-04-03T02:22:09;26.10;35.61
79014;DHT22;68419;44.714;37.756;2023-04-03T02:23:11;26.08;35.59
79014;DHT22;68419;44.714;37.756;2023-04-03T02:24:13;26.10;35.51
79014;DHT22;68419;44.714;37.756;2023-04-03T02:25:14;26.10;35.54
79014;DHT22;68419;44.714;37.756;2023-04-03T02:26:16;26.11;35.53
79014;DHT22;68419;44.714;37.756;2023-04-03T02:27:20;26.11;35.47
79014;DHT22;68419;44.714;37.756;2023-04-03T02:28:23;26.12;35.40
79014;DHT22;68419;44.714;37.756;2023-04-03T02:29:25;26.12;35.44
79014;DHT22;68419;44.714;37.756;2023-04-03T02:30:28;26.12;35.53
79014;DHT22;68419;44.714;37.756;2023-04-03T02:31:29;26.15;35.40
79014;DHT22;68419;44.714;37.756;2023-04-03T02:32:32;26.13;35.37
79014;DHT22;68419;44.714;37.756;2023-04-03T02:33:34;26.15;35.31
79014;DHT22;68419;44.714;37.756;2023-04-03T02:34:38;26.15;35.36
79014;DHT22;68419;44.714;37.756;2023-04-03T02:35:40;26.11;35.39
79014;DHT22;68419;44.714;37.756;2023-04-03T02:36:42;26.11;35.49
79014;DHT22;68419;44.714;37.756;2023-04-03T02:37:45;26.10;35.45
79014;DHT22;68419;44.714;37.756;2023-04-03T02:38:47;26.08;35.49
79014;DHT22;68419;44.714;37.756;2023-04-03T02:39:50;26.11;35.44
79014;DHT22;68419;44.714;37.756;2023-04-03T02:40:52;26.09;35.49
79014;DHT22;68419;44.714;37.756;2023-04-03T02:41:53;26.09;35.47
79014;DHT22;68419;44.714;37.756;2023-04-03T02:42:58;26.09;35.46
79014;DHT22;68419;44.714;37.756;2023-04-03T02:44:05;26.09;35.53
79014;DHT22;68419;44.714;37.756;2023-04-03T02:45:07;26.10;35.52
79014;DHT22;68419;44.714;37.756;2023-04-03T02:46:08;26.08;35.54
79014;DHT22;68419;44.714;37.756;2023-04-03T02:47:10;26.07;35.52
79014;DHT22;68419;44.714;37.756;2023-04-03T02:48:12;26.05;35.60
79014;DHT22;68419;44.714;37.756;2023-04-03T02:49:13;26.06;35.52
79014;DHT22;68419;44.714;37.756;2023-04-03T02:50:15;26.07;35.52
79014;DHT22;68419;44.714;37.756;2023-04-03T02:51:16;26.08;35.47
79014;DHT22;68419;44.714;37.756;2023-04-03T02:52:19;26.09;35.47
79014;DHT22;68419;44.714;37.756;2023-04-03T02:53:22;26.07;35.44
79014;DHT22;68419;44.714;37.756;2023-04-03T02:54:24;26.08;35.44
79014;DHT22;68419;44.714;37.756;2023-04-03T02:55:30;26.09;35.44
79014;DHT22;68419;44.714;37.756;2023-04-03T02:56:32;26.10;35.40
79014;DHT22;68419;44.714;37.756;2023-04-03T02:57:33;26.11;35.42
79014;DHT22;68419;44.714;37.756;2023-04-03T02:58:34;26.09;35.40
79014;DHT22;68419;44.714;37.756;2023-04-03T02:59:37;26.09;35.38
79014;DHT22;68419;44.714;37.756;2023-04-03T03:00:41;26.11;35.28
79014;DHT22;68419;44.714;37.756;2023-04-03T03:01:43;26.13;35.32
79014;DHT22;68419;44.714;37.756;2023-04-03T03:02:44;26.11;35.31
79014;DHT22;68419;44.714;37.756;2023-04-03T03:03:46;26.11;35.37
79014;DHT22;68419;44.714;37.756;2023-04-03T03:04:47;26.10;35.36
79014;DHT22;68419;44.714;37.756;2023-04-03T03:05:49;26.12;35.37
79014;DHT22;68419;44.714;37.756;2023-04-03T03:06:50;26.15;35.29
79014;DHT22;68419;44.714;37.756;2023-04-03T03:07:52;26.15;35.22
79014;DHT22;68419;44.714;37.756;2023-04-03T03:08:53;26.16;35.21
79014;DHT22;68419;44.714;37.756;2023-04-03T03:09:55;26.17;35.15
79014;DHT22;68419;44.714;37.756;2023-04-03T03:10:57;26.13;35.30
79014;DHT22;68419;44.714;37.756;2023-04-03T03:11:58;26.13;35.33
79014;DHT22;68419;44.714;37.756;2023-04-03T03:12:59;26.10;35.40
79014;DHT22;68419;44.714;37.756;2023-04-03T03:14:04;26.11;35.35
79014;DHT22;68419;44.714;37.756;2023-04-03T03:15:06;26.09;35.34
79014;DHT22;68419;44.714;37.756;2023-04-03T03:16:08;26.08;35.37
79014;DHT22;68419;44.714;37.756;2023-04-03T03:17:09;26.11;35.34
79014;DHT22;68419;44.714;37.756;2023-04-03T03:18:11;26.10;35.34
79014;DHT22;68419;44.714;37.756;2023-04-03T03:19:13;26.10;35.32
79014;DHT22;68419;44.714;37.756;2023-04-03T03:20:14;26.11;35.21
79014;DHT22;68419;44.714;37.756;2023-04-03T03:21:16;26.13;35.15
79014;DHT22;68419;44.714;37.756;2023-04-03T03:22:18;26.13;35.18
79014;DHT22;68419;44.714;37.756;2023-04-03T03:23:20;26.17;35.11
79014;DHT22;68419;44.714;37.756;2023-04-03T03:24:22;26.15;35.13
79014;DHT22;68419;44.714;37.756;2023-04-03T03:25:23;26.16;35.11
79014;DHT22;68419;44.714;37.756;2023-04-03T03:26:25;26.15;35.13
79014;DHT22;68419;44.714;37.756;2023-04-03T03:27:27;26.15;35.14
79014;DHT22;68419;44.714;37.756;2023-04-03T03:28:28;26.18;35.05
79014;DHT22;68419;44.714;37.756;2023-04-03T03:29:30;26.17;35.06
79014;DHT22;68419;44.714;37.756;2023-04-03T03:30:31;26.18;35.05
79014;DHT22;68419;44.714;37.756;2023-04-03T03:31:33;26.18;35.05
79014;DHT22;68419;44.714;37.756;2023-04-03T03:32:34;26.19;34.97
79014;DHT22;68419;44.714;37.756;2023-04-03T03:33:36;26.20;34.89
79014;DHT22;68419;44.714;37.756;2023-04-03T03:34:38;26.19;34.96
79014;DHT22;68419;44.714;37.756;2023-04-03T03:35:40;26.18;34.98
79014;DHT22;68419;44.714;37.756;2023-04-03T03:36:42;26.18;34.95
79014;DHT22;68419;44.714;37.756;2023-04-03T03:37:44;26.17;34.92
79014;DHT22;68419;44.714;37.756;2023-04-03T03:38:46;26.16;34.96
79014;DHT22;68419;44.714;37.756;2023-04-03T03:39:47;26.17;34.93
79014;DHT22;68419;44.714;37.756;2023-04-03T03:40:49;26.17;34.94
79014;DHT22;68419;44.714;37.756;2023-04-03T03:41:52;26.20;34.93
79014;DHT22;68419;44.714;37.756;2023-04-03T03:42:54;26.19;34.90
79014;DHT22;68419;44.714;37.756;2023-04-03T03:43:56;26.16;35.02
79014;DHT22;68419;44.714;37.756;2023-04-03T03:44:58;26.17;34.98
79014;DHT22;68419;44.714;37.756;2023-04-03T03:45:59;26.17;34.89
79014;DHT22;68419;44.714;37.756;2023-04-03T03:47:02;26.16;34.89
79014;DHT22;68419;44.714;37.756;2023-04-03T03:48:04;26.16;34.94
79014;DHT22;68419;44.714;37.756;2023-04-03T03:49:06;26.16;34.95
79014;DHT22;68419;44.714;37.756;2023-04-03T03:50:08;26.16;34.92
79014;DHT22;68419;44.714;37.756;2023-04-03T03:51:10;26.16;34.88
79014;DHT22;68419;44.714;37.756;2023-04-03T03:52:13;26.15;34.89
79014;DHT22;68419;44.714;37.756;2023-04-03T03:53:14;26.17;34.85
79014;DHT22;68419;44.714;37.756;2023-04-03T03:54:16;26.16;34.88
79014;DHT22;68419;44.714;37.756;2023-04-03T03:55:18;26.17;34.80
79014;DHT22;68419;44.714;37.756;2023-04-03T03:56:23;26.16;34.79
79014;DHT22;68419;44.714;37.756;2023-04-03T03:57:25;26.19;34.79
79014;DHT22;68419;44.714;37.756;2023-04-03T03:58:30;26.19;34.79
79014;DHT22;68419;44.714;37.756;2023-04-03T03:59:31;26.18;34.82
79014;DHT22;68419;44.714;37.756;2023-04-03T04:00:33;26.18;34.86
79014;DHT22;68419;44.714;37.756;2023-04-03T04:01:35;26.19;34.84
79014;DHT22;68419;44.714;37.756;2023-04-03T04:02:36;26.17;35.02
79014;DHT22;68419;44.714;37.756;2023-04-03T04:03:38;26.18;34.96
79014;DHT22;68419;44.714;37.756;2023-04-03T04:04:40;26.20;34.89
79014;DHT22;68419;44.714;37.756;2023-04-03T04:05:41;26.19;34.89
79014;DHT22;68419;44.714;37.756;2023-04-03T04:06:43;26.23;34.86
79014;DHT22;68419;44.714;37.756;2023-04-03T04:07:45;26.23;34.84
79014;DHT22;68419;44.714;37.756;2023-04-03T04:08:46;26.22;34.83
79014;DHT22;68419;44.714;37.756;2023-04-03T04:09:49;26.23;34.79
79014;DHT22;68419;44.714;37.756;2023-04-03T04:10:51;26.19;34.81
79014;DHT22;68419;44.714;37.756;2023-04-03T04:11:53;26.18;34.83
79014;DHT22;68419;44.714;37.756;2023-04-03T04:12:54;26.18;34.86
79014;DHT22;68419;44.714;37.756;2023-04-03T04:13:58;26.15;34.86
79014;DHT22;68419;44.714;37.756;2023-04-03T04:15:03;26.17;34.95
79014;DHT22;68419;44.714;37.756;2023-04-03T04:16:05;26.18;34.99
79014;DHT22;68419;44.714;37.756;2023-04-03T04:17:08;26.17;34.99
79014;DHT22;68419;44.714;37.756;2023-04-03T04:18:11;26.17;35.03
79014;DHT22;68419;44.714;37.756;2023-04-03T04:19:12;26.18;35.08
79014;DHT22;68419;44.714;37.756;2023-04-03T04:20:14;26.17;35.05
79014;DHT22;68419;44.714;37.756;2023-04-03T04:21:16;26.17;35.12
79014;DHT22;68419;44.714;37.756;2023-04-03T04:22:19;26.18;35.14
79014;DHT22;68419;44.714;37.756;2023-04-03T04:23:20;26.19;35.15
79014;DHT22;68419;44.714;37.756;2023-04-03T04:24:23;26.19;35.11
79014;DHT22;68419;44.714;37.756;2023-04-03T04:25:27;26.19;34.93
79014;DHT22;68419;44.714;37.756;2023-04-03T04:26:28;26.20;34.95
79014;DHT22;68419;44.714;37.756;2023-04-03T04:27:30;26.20;35.02
79014;DHT22;68419;44.714;37.756;2023-04-03T04:28:31;26.20;34.95
79014;DHT22;68419;44.714;37.756;2023-04-03T04:29:34;26.22;34.88
79014;DHT22;68419;44.714;37.756;2023-04-03T04:30:39;26.23;34.84
79014;DHT22;68419;44.714;37.756;2023-04-03T04:31:40;26.25;34.86
79014;DHT22;68419;44.714;37.756;2023-04-03T04:32:42;26.25;34.95
79014;DHT22;68419;44.714;37.756;2023-04-03T04:33:43;26.23;35.08
79014;DHT22;68419;44.714;37.756;2023-04-03T04:34:47;26.22;35.02
79014;DHT22;68419;44.714;37.756;2023-04-03T04:35:48;26.23;35.08
79014;DHT22;68419;44.714;37.756;2023-04-03T04:36:51;26.25;35.13
79014;DHT22;68419;44.714;37.756;2023-04-03T04:37:53;26.23;35.29
79014;DHT22;68419;44.714;37.756;2023-04-03T04:38:55;26.23;35.25
79014;DHT22;68419;44.714;37.756;2023-04-03T04:39:59;26.21;35.31
79014;DHT22;68419;44.714;37.756;2023-04-03T04:41:01;26.16;35.35
79014;DHT22;68419;44.714;37.756;2023-04-03T04:42:03;26.11;35.46
79014;DHT22;68419;44.714;37.756;2023-04-03T04:43:06;26.07;35.51
79014;DHT22;68419;44.714;37.756;2023-04-03T04:44:08;26.04;35.59
79014;DHT22;68419;44.714;37.756;2023-04-03T04:45:10;26.02;35.61
79014;DHT22;68419;44.714;37.756;2023-04-03T04:46:14;25.99;35.66
79014;DHT22;68419;44.714;37.756;2023-04-03T04:47:21;25.95;35.72
79014;DHT22;68419;44.714;37.756;2023-04-03T04:48:23;25.92;35.79
79014;DHT22;68419;44.714;37.756;2023-04-03T04:49:25;25.89;35.84
79014;DHT22;68419;44.714;37.756;2023-04-03T04:50:26;25.90;35.85
79014;DHT22;68419;44.714;37.756;2023-04-03T04:51:29;25.89;35.88
79014;DHT22;68419;44.714;37.756;2023-04-03T04:52:31;25.88;35.87
79014;DHT22;68419;44.714;37.756;2023-04-03T04:53:33;25.87;35.92
79014;DHT22;68419;44.714;37.756;2023-04-03T04:54:34;25.86;35.92
79014;DHT22;68419;44.714;37.756;2023-04-03T04:55:36;25.84;35.92
79014;DHT22;68419;44.714;37.756;2023-04-03T04:56:38;25.84;35.91
79014;DHT22;68419;44.714;37.756;2023-04-03T04:57:39;25.87;35.89
79014;DHT22;68419;44.714;37.756;2023-04-03T04:58:41;25.87;35.87
79014;DHT22;68419;44.714;37.756;2023-04-03T04:59:43;25.82;35.93
79014;DHT22;68419;44.714;37.756;2023-04-03T05:00:44;25.83;35.91
79014;DHT22;68419;44.714;37.756;2023-04-03T05:01:46;25.84;35.92
79014;DHT22;68419;44.714;37.756;2023-04-03T05:02:50;25.82;35.96
79014;DHT22;68419;44.714;37.756;2023-04-03T05:03:53;25.84;35.90
79014;DHT22;68419;44.714;37.756;2023-04-03T05:04:56;25.82;35.92
79014;DHT22;68419;44.714;37.756;2023-04-03T05:06:02;25.83;35.92
79014;DHT22;68419;44.714;37.756;2023-04-03T05:07:05;25.83;35.89
79014;DHT22;68419;44.714;37.756;2023-04-03T05:08:10;25.84;35.86
79014;DHT22;68419;44.714;37.756;2023-04-03T05:09:13;25.83;35.92
79014;DHT22;68419;44.714;37.756;2023-04-03T05:10:17;25.81;35.95
79014;DHT22;68419;44.714;37.756;2023-04-03T05:11:19;25.79;35.98
79014;DHT22;68419;44.714;37.756;2023-04-03T05:12:24;25.80;35.96
79014;DHT22;68419;44.714;37.756;2023-04-03T05:13:31;25.78;36.00
79014;DHT22;68419;44.714;37.756;2023-04-03T05:14:32;25.78;36.00
79014;DHT22;68419;44.714;37.756;2023-04-03T05:15:38;25.76;36.02
79014;DHT22;68419;44.714;37.756;2023-04-03T05:16:39;25.78;36.01
79014;DHT22;68419;44.714;37.756;2023-04-03T05:17:41;25.78;35.96
79014;DHT22;68419;44.714;37.756;2023-04-03T05:18:46;25.78;35.98
79014;DHT22;68419;44.714;37.756;2023-04-03T05:19:53;25.77;36.00
79014;DHT22;68419;44.714;37.756;2023-04-03T05:20:56;25.78;36.00
79014;DHT22;68419;44.714;37.756;2023-04-03T05:22:00;25.82;35.87
79014;DHT22;68419;44.714;37.756;2023-04-03T05:23:04;25.82;35.85
79014;DHT22;68419;44.714;37.756;2023-04-03T05:24:07;25.81;35.88
79014;DHT22;68419;44.714;37.756;2023-04-03T05:25:14;25.82;35.89
79014;DHT22;68419;44.714;37.756;2023-04-03T05:26:18;25.79;35.90
79014;DHT22;68419;44.714;37.756;2023-04-03T05:27:22;25.79;35.89
79014;DHT22;68419;44.714;37.756;2023-04-03T05:28:28;25.78;35.95
79014;DHT22;68419;44.714;37.756;2023-04-03T05:29:29;25.78;35.92
79014;DHT22;68419;44.714;37.756;2023-04-03T05:30:33;25.78;35.92
79014;DHT22;68419;44.714;37.756;2023-04-03T05:31:36;25.76;35.98
79014;DHT22;68419;44.714;37.756;2023-04-03T05:32:38;25.75;36.00
79014;DHT22;68419;44.714;37.756;2023-04-03T05:33:56;25.77;35.98
79014;DHT22;68419;44.714;37.756;2023-04-03T05:34:57;25.75;36.01
79014;DHT22;68419;44.714;37.756;2023-04-03T05:36:04;25.76;36.02
79014;DHT22;68419;44.714;37.756;2023-04-03T05:37:08;25.75;36.00
79014;DHT22;68419;44.714;37.756;2023-04-03T05:38:09;25.74;36.04
79014;DHT22;68419;44.714;37.756;2023-04-03T05:39:11;25.73;36.02
79014;DHT22;68419;44.714;37.756;2023-04-03T05:40:16;25.76;35.99
79014;DHT22;68419;44.714;37.756;2023-04-03T05:41:20;25.78;35.93
79014;DHT22;68419;44.714;37.756;2023-04-03T05:42:22;25.79;35.90
79014;DHT22;68419;44.714;37.756;2023-04-03T05:43:23;25.77;35.93
79014;DHT22;68419;44.714;37.756;2023-04-03T05:44:25;25.76;35.97
79014;DHT22;68419;44.714;37.756;2023-04-03T05:45:29;25.75;35.96
79014;DHT22;68419;44.714;37.756;2023-04-03T05:46:32;25.77;35.97
79014;DHT22;68419;44.714;37.756;2023-04-03T05:47:37;25.77;35.95
79014;DHT22;68419;44.714;37.756;2023-04-03T05:48:41;25.76;35.97
79014;DHT22;68419;44.714;37.756;2023-04-03T05:49:45;25.79;35.91
79014;DHT22;68419;44.714;37.756;2023-04-03T05:50:49;25.77;35.85
79014;DHT22;68419;44.714;37.756;2023-04-03T05:51:56;25.76;35.89
79014;DHT22;68419;44.714;37.756;2023-04-03T05:53:02;25.77;35.92
79014;DHT22;68419;44.714;37.756;2023-04-03T05:54:12;25.78;35.91
79014;DHT22;68419;44.714;37.756;2023-04-03T05:55:15;25.76;35.95
79014;DHT22;68419;44.714;37.756;2023-04-03T05:56:16;25.76;35.95
79014;DHT22;68419;44.714;37.756;2023-04-03T05:57:18;25.76;35.94
79014;DHT22;68419;44.714;37.756;2023-04-03T05:58:20;25.76;35.95
79014;DHT22;68419;44.714;37.756;2023-04-03T05:59:23;25.76;35.96
79014;DHT22;68419;44.714;37.756;2023-04-03T06:00:27;25.74;36.00
79014;DHT22;68419;44.714;37.756;2023-04-03T06:01:35;25.72;36.05
79014;DHT22;68419;44.714;37.756;2023-04-03T06:02:36;25.74;35.98
79014;DHT22;68419;44.714;37.756;2023-04-03T06:03:38;25.76;35.94
79014;DHT22;68419;44.714;37.756;2023-04-03T06:04:41;25.75;35.97
79014;DHT22;68419;44.714;37.756;2023-04-03T06:05:43;25.74;36.00
79014;DHT22;68419;44.714;37.756;2023-04-03T06:06:52;25.74;35.99
79014;DHT22;68419;44.714;37.756;2023-04-03T06:07:53;25.76;35.98
79014;DHT22;68419;44.714;37.756;2023-04-03T06:08:55;25.76;35.94
79014;DHT22;68419;44.714;37.756;2023-04-03T06:09:57;25.78;35.91
79014;DHT22;68419;44.714;37.756;2023-04-03T06:10:58;25.78;35.87
79014;DHT22;68419;44.714;37.756;2023-04-03T06:11:59;25.80;35.83
79014;DHT22;68419;44.714;37.756;2023-04-03T06:13:03;25.80;35.83
79014;DHT22;68419;44.714;37.756;2023-04-03T06:14:04;25.84;35.75
79014;DHT22;68419;44.714;37.756;2023-04-03T06:15:06;25.81;35.77
79014;DHT22;68419;44.714;37.756;2023-04-03T06:16:12;25.83;35.79
79014;DHT22;68419;44.714;37.756;2023-04-03T06:17:16;25.81;35.82
79014;DHT22;68419;44.714;37.756;2023-04-03T06:18:18;25.81;35.77
79014;DHT22;68419;44.714;37.756;2023-04-03T06:19:20;25.81;35.81
79014;DHT22;68419;44.714;37.756;2023-04-03T06:20:25;25.79;35.85
79014;DHT22;68419;44.714;37.756;2023-04-03T06:21:28;25.78;35.84
79014;DHT22;68419;44.714;37.756;2023-04-03T06:22:29;25.79;35.85
79014;DHT22;68419;44.714;37.756;2023-04-03T06:23:31;25.76;35.88
79014;DHT22;68419;44.714;37.756;2023-04-03T06:24:33;25.76;35.92
79014;DHT22;68419;44.714;37.756;2023-04-03T06:25:35;25.76;35.89
79014;DHT22;68419;44.714;37.756;2023-04-03T06:26:36;25.78;35.89
79014;DHT22;68419;44.714;37.756;2023-04-03T06:27:38;25.78;35.89
79014;DHT22;68419;44.714;37.756;2023-04-03T06:28:39;25.78;35.86
79014;DHT22;68419;44.714;37.756;2023-04-03T06:29:41;25.79;35.86
79014;DHT22;68419;44.714;37.756;2023-04-03T06:30:42;25.79;35.85
79014;DHT22;68419;44.714;37.756;2023-04-03T06:31:44;25.79;35.85
79014;DHT22;68419;44.714;37.756;2023-04-03T06:32:45;25.81;35.83
79014;DHT22;68419;44.714;37.756;2023-04-03T06:33:46;25.81;35.84
79014;DHT22;68419;44.714;37.756;2023-04-03T06:34:48;25.79;35.89
79014;DHT22;68419;44.714;37.756;2023-04-03T06:35:49;25.78;35.89
79014;DHT22;68419;44.714;37.756;2023-04-03T06:36:51;25.77;35.88